Terminal Aerodrome Forecast
Issued by NWS

Home | Current Version | Previous Version | Text Only | Print | Product List | Glossary On
Versions: 1 2 3 4 5 6 7 8 9 10 11 12 13 14 15 16 17 18 19 20 21 22 23 24 25
000
FTUS43 KABR 281700
TAFMBG
TAF
KMBG 281720Z 2818/2918 16018G26KT P6SM SKC
     FM290100 15017KT P6SM -SHRA OVC070
     FM290400 33014KT P6SM BKN100
     FM290900 31024G34KT P6SM -SHRA OVC030
     FM291200 33030G40KT P6SM OVC030
     FM291700 32024G32KT P6SM BKN030=

USA.gov is the U.S. government's official web portal to all federal, state and local government web resources and services.